Time;durP1;ratioP1;P1;durP2;ratioP2;P2;SDS_P1;SDS_P2;PMS_P1;PMS_P2;Temp;Humidity;BMP_temperature;BMP_pressure;BME280_temperature;BME280_humidity;BME280_pressure;Samples;Min_cycle;Max_cycle;Signal;HPM_P1;HPM_P2
2021/10/08 00:01:50;;;;;;;15.80;9.85;;;7.50;99.90;;;;;;5057602;28;20521;-81
2021/10/08 00:04:16;;;;;;;22.70;11.55;;;7.50;99.90;;;;;;5021630;28;20040;-81
2021/10/08 00:06:41;;;;;;;15.55;9.65;;;7.40;99.90;;;;;;5027139;28;20032;-81
2021/10/08 00:09:07;;;;;;;17.23;10.48;;;7.50;99.90;;;;;;5026600;28;20040;-82
2021/10/08 00:11:32;;;;;;;18.15;11.30;;;7.40;99.90;;;;;;5028803;28;20047;-82
2021/10/08 00:13:58;;;;;;;19.23;11.00;;;7.40;99.90;;;;;;5023316;28;20043;-81
2021/10/08 00:16:23;;;;;;;19.10;11.20;;;7.30;99.90;;;;;;5030454;28;20028;-82
2021/10/08 00:18:50;;;;;;;21.10;11.73;;;7.30;99.90;;;;;;5029000;28;20036;-81
2021/10/08 00:21:16;;;;;;;18.77;10.85;;;7.30;99.90;;;;;;5029278;28;20074;-81
2021/10/08 00:23:41;;;;;;;18.60;10.40;;;7.30;99.90;;;;;;5017607;28;20016;-81
2021/10/08 00:26:07;;;;;;;12.93;8.68;;;7.40;99.90;;;;;;5030503;28;20052;-81
2021/10/08 00:28:32;;;;;;;15.73;9.60;;;7.40;99.90;;;;;;5029856;28;20043;-80
2021/10/08 00:30:58;;;;;;;19.48;11.25;;;7.50;99.90;;;;;;5020792;28;20044;-82
2021/10/08 00:33:24;;;;;;;16.17;10.05;;;7.40;99.90;;;;;;5033276;28;20028;-81
2021/10/08 00:35:49;;;;;;;15.85;9.68;;;7.30;99.90;;;;;;5044317;28;20021;-81
2021/10/08 00:38:15;;;;;;;17.48;9.65;;;7.40;99.90;;;;;;5028997;28;20040;-81
2021/10/08 00:40:44;;;;;;;13.88;9.10;;;7.30;99.90;;;;;;5014175;28;20033;-81
2021/10/08 00:43:09;;;;;;;14.88;8.27;;;7.10;99.90;;;;;;5018144;28;20036;-81
2021/10/08 00:45:36;;;;;;;13.90;8.18;;;7.20;99.90;;;;;;5027337;28;20025;-81
2021/10/08 00:48:06;;;;;;;13.55;8.35;;;7.20;99.90;;;;;;5026789;28;20039;-81
2021/10/08 00:50:37;;;;;;;13.73;8.93;;;7.20;99.90;;;;;;5011857;28;20776;-81
2021/10/08 00:53:03;;;;;;;17.15;10.68;;;7.10;99.90;;;;;;5038206;28;20571;-81
2021/10/08 00:55:29;;;;;;;15.70;10.25;;;7.00;99.90;;;;;;5049180;28;20083;-81
2021/10/08 00:57:54;;;;;;;15.13;9.60;;;6.80;99.90;;;;;;5029275;28;20076;-82
2021/10/08 01:00:20;;;;;;;20.08;10.65;;;6.80;99.90;;;;;;5028352;28;20032;-81
2021/10/08 01:02:45;;;;;;;19.38;11.13;;;6.70;99.90;;;;;;5020776;28;20468;-81
2021/10/08 01:05:11;;;;;;;18.85;10.77;;;6.70;99.90;;;;;;5031657;28;20449;-81
2021/10/08 01:07:37;;;;;;;17.40;10.93;;;6.70;99.90;;;;;;5017700;28;20470;-81
2021/10/08 01:10:04;;;;;;;21.73;10.20;;;6.60;99.90;;;;;;5029725;28;20043;-81
2021/10/08 01:12:31;;;;;;;17.50;10.30;;;6.60;99.90;;;;;;5030975;28;20024;-81
2021/10/08 01:14:56;;;;;;;13.27;8.60;;;6.60;99.90;;;;;;5035084;28;20634;-81
2021/10/08 01:17:22;;;;;;;15.65;8.82;;;6.50;99.90;;;;;;5030603;28;20033;-81
2021/10/08 01:19:47;;;;;;;16.45;9.45;;;6.50;99.90;;;;;;5028486;28;20029;-81
2021/10/08 01:22:13;;;;;;;15.60;9.60;;;6.50;99.90;;;;;;5041667;28;20044;-81
2021/10/08 01:24:38;;;;;;;12.80;8.05;;;6.50;99.90;;;;;;5031945;28;20040;-81
2021/10/08 01:27:05;;;;;;;11.52;7.47;;;6.50;99.90;;;;;;5032639;28;20041;-81
2021/10/08 01:29:31;;;;;;;14.10;8.52;;;6.50;99.90;;;;;;5034744;28;20024;-81
2021/10/08 01:31:56;;;;;;;12.90;7.88;;;6.50;99.90;;;;;;5020585;28;20029;-81
2021/10/08 01:34:22;;;;;;;14.95;8.45;;;6.50;99.90;;;;;;5052091;28;20028;-81
2021/10/08 01:36:47;;;;;;;11.75;7.72;;;6.50;99.90;;;;;;5030595;28;20021;-81
2021/10/08 01:39:13;;;;;;;11.77;7.60;;;6.50;99.90;;;;;;5032190;28;20759;-81
2021/10/08 01:41:38;;;;;;;13.02;8.00;;;6.60;99.90;;;;;;5017963;28;20538;-81
2021/10/08 01:44:04;;;;;;;12.50;7.63;;;6.50;99.90;;;;;;5032089;28;20054;-81
2021/10/08 01:46:31;;;;;;;14.30;7.95;;;6.50;99.90;;;;;;5038300;28;20074;-81
2021/10/08 01:48:56;;;;;;;13.32;8.18;;;6.40;99.90;;;;;;5027502;28;20544;-81
2021/10/08 01:51:22;;;;;;;12.88;8.07;;;6.50;99.90;;;;;;5028500;28;20021;-81
2021/10/08 01:53:48;;;;;;;15.18;7.53;;;6.40;99.90;;;;;;5033077;28;20046;-81
2021/10/08 01:56:13;;;;;;;14.05;8.90;;;6.30;99.90;;;;;;5030633;28;20032;-82
2021/10/08 01:58:39;;;;;;;14.50;8.27;;;6.30;99.90;;;;;;5016820;28;20041;-81
2021/10/08 02:01:04;;;;;;;16.60;8.73;;;6.20;99.90;;;;;;5033156;28;20044;-81
2021/10/08 02:03:30;;;;;;;17.42;9.07;;;6.20;99.90;;;;;;5047038;28;20041;-82
2021/10/08 02:05:56;;;;;;;14.82;8.90;;;6.20;99.90;;;;;;5026149;28;20037;-81
2021/10/08 02:08:21;;;;;;;15.48;8.43;;;6.20;99.90;;;;;;5025106;28;20036;-81
2021/10/08 02:10:47;;;;;;;14.02;8.20;;;6.20;99.90;;;;;;5036853;28;20547;-81
2021/10/08 02:13:13;;;;;;;12.70;8.20;;;6.20;99.90;;;;;;5030652;28;20029;-81
2021/10/08 02:15:38;;;;;;;12.35;7.05;;;6.20;99.90;;;;;;5031362;28;20029;-81
2021/10/08 02:18:04;;;;;;;10.95;6.97;;;6.30;99.90;;;;;;5039079;28;20051;-82
2021/10/08 02:20:29;;;;;;;12.88;7.82;;;6.30;99.90;;;;;;5029538;28;20025;-81
2021/10/08 02:22:55;;;;;;;13.48;7.57;;;6.10;99.90;;;;;;5032308;28;20216;-81
2021/10/08 02:25:20;;;;;;;10.38;7.28;;;6.00;99.90;;;;;;5031919;28;20459;-82
2021/10/08 02:27:46;;;;;;;20.20;9.23;;;6.00;99.90;;;;;;5029557;28;20087;-82
2021/10/08 02:30:11;;;;;;;17.48;9.80;;;6.00;99.90;;;;;;5031248;28;20035;-81
2021/10/08 02:32:37;;;;;;;14.80;9.30;;;6.00;99.90;;;;;;5033079;28;20127;-82
2021/10/08 02:35:03;;;;;;;16.98;9.20;;;6.00;99.90;;;;;;5033644;28;20032;-82
2021/10/08 02:37:29;;;;;;;17.30;9.75;;;6.00;99.90;;;;;;5044033;28;20040;-81
2021/10/08 02:39:54;;;;;;;16.80;9.90;;;6.00;99.90;;;;;;5027645;28;20090;-86
2021/10/08 02:42:20;;;;;;;20.20;9.68;;;6.00;99.90;;;;;;5030449;28;20384;-87
2021/10/08 02:44:45;;;;;;;17.42;10.05;;;6.00;99.90;;;;;;5021664;28;20043;-87
2021/10/08 02:47:11;;;;;;;18.13;9.77;;;5.90;99.90;;;;;;5024467;28;20039;-87
2021/10/08 02:49:36;;;;;;;18.70;10.20;;;5.90;99.90;;;;;;5035521;28;20411;-86
2021/10/08 02:52:02;;;;;;;20.40;9.88;;;5.90;99.90;;;;;;5013956;28;20660;-87
2021/10/08 02:54:28;;;;;;;13.00;8.40;;;6.00;99.90;;;;;;5029192;28;20120;-86
2021/10/08 02:56:53;;;;;;;18.58;9.38;;;5.80;99.90;;;;;;5035157;28;20672;-87
2021/10/08 02:59:19;;;;;;;15.68;9.35;;;5.70;99.90;;;;;;5034764;28;20556;-87
2021/10/08 03:01:44;;;;;;;18.10;10.00;;;5.70;99.90;;;;;;5030305;28;20043;-87
2021/10/08 03:04:10;;;;;;;14.88;9.02;;;5.70;99.90;;;;;;5032050;28;20032;-86
2021/10/08 03:06:35;;;;;;;15.98;9.05;;;5.70;99.90;;;;;;5014254;28;20021;-87
2021/10/08 03:09:01;;;;;;;17.83;9.82;;;5.60;99.90;;;;;;5018477;28;20389;-87
2021/10/08 03:11:27;;;;;;;18.65;9.75;;;5.60;99.90;;;;;;5045734;28;20021;-86
2021/10/08 03:13:52;;;;;;;15.48;9.35;;;5.50;99.90;;;;;;5018866;28;20033;-87
2021/10/08 03:16:18;;;;;;;16.40;9.80;;;5.50;99.90;;;;;;5033963;28;20037;-85
2021/10/08 03:18:43;;;;;;;16.58;9.40;;;5.50;99.90;;;;;;5017337;28;20141;-87
2021/10/08 03:21:09;;;;;;;16.38;9.45;;;5.50;99.90;;;;;;5017411;28;20041;-87
2021/10/08 03:23:34;;;;;;;19.55;9.82;;;5.50;99.90;;;;;;5029954;28;20055;-87
2021/10/08 03:26:00;;;;;;;17.65;9.73;;;5.50;99.90;;;;;;5029438;28;20032;-85
2021/10/08 03:28:26;;;;;;;18.77;9.80;;;5.40;99.90;;;;;;5039310;28;20463;-87
2021/10/08 03:30:51;;;;;;;17.10;9.85;;;5.40;99.90;;;;;;5033949;28;20032;-87
2021/10/08 03:33:17;;;;;;;18.83;9.52;;;5.40;99.90;;;;;;5029194;28;20036;-87
2021/10/08 03:35:43;;;;;;;20.27;9.73;;;5.40;99.90;;;;;;5030676;28;22317;-88
2021/10/08 03:38:14;;;;;;;17.77;9.35;;;5.40;99.90;;;;;;5003613;28;20137;-86
2021/10/08 03:40:41;;;;;;;15.38;9.00;;;5.40;99.90;;;;;;5047092;28;20380;-87
2021/10/08 03:43:10;;;;;;;16.75;9.75;;;5.40;99.90;;;;;;5028699;28;20036;-87
2021/10/08 03:45:45;;;;;;;18.27;9.30;;;5.40;99.90;;;;;;5046869;28;20109;-87
2021/10/08 03:50:47;;;;;;;18.02;9.05;;;5.30;99.90;;;;;;5035649;28;20060;-88
2021/10/08 03:53:12;;;;;;;16.83;8.80;;;5.30;99.90;;;;;;5033746;28;20526;-86
2021/10/08 03:55:38;;;;;;;14.43;8.30;;;5.20;99.90;;;;;;5029866;28;20024;-88
2021/10/08 03:58:03;;;;;;;16.85;8.68;;;5.20;99.90;;;;;;5033590;28;20106;-87
2021/10/08 04:00:29;;;;;;;17.42;7.72;;;5.20;99.90;;;;;;5030266;28;20396;-87
2021/10/08 04:02:55;;;;;;;12.68;8.27;;;5.20;99.90;;;;;;5031944;28;20094;-86
2021/10/08 04:05:21;;;;;;;13.80;7.80;;;5.10;99.90;;;;;;5013557;28;20047;-88
2021/10/08 04:07:47;;;;;;;17.92;8.40;;;5.20;99.90;;;;;;5019135;28;20036;-87
2021/10/08 04:10:12;;;;;;;13.93;8.07;;;5.20;99.90;;;;;;5030651;28;20078;-88
2021/10/08 04:12:38;;;;;;;11.52;8.27;;;5.20;99.90;;;;;;5011184;28;20036;-87
2021/10/08 04:15:04;;;;;;;14.48;8.13;;;5.20;99.90;;;;;;5031470;28;20033;-88
2021/10/08 04:17:30;;;;;;;12.77;7.68;;;5.20;99.90;;;;;;5050783;28;20467;-88
2021/10/08 04:19:55;;;;;;;8.55;6.00;;;5.20;99.90;;;;;;5029721;28;20040;-87
2021/10/08 04:22:21;;;;;;;11.32;6.88;;;5.20;99.90;;;;;;5026523;28;20036;-88
2021/10/08 04:24:46;;;;;;;14.90;7.28;;;5.30;99.90;;;;;;5022166;28;20037;-88
2021/10/08 04:27:12;;;;;;;13.65;7.15;;;5.20;99.90;;;;;;5014556;28;20029;-88
2021/10/08 04:29:38;;;;;;;11.15;6.68;;;5.10;99.90;;;;;;5048877;28;20025;-86
2021/10/08 04:32:03;;;;;;;12.23;7.10;;;5.10;99.90;;;;;;5035315;28;20082;-89
2021/10/08 04:34:29;;;;;;;14.13;8.48;;;5.10;99.90;;;;;;5034918;28;20438;-90
2021/10/08 04:36:54;;;;;;;13.80;8.40;;;5.00;99.90;;;;;;5019027;28;20570;-88
2021/10/08 04:39:20;;;;;;;16.75;8.50;;;5.00;99.90;;;;;;5031669;28;20573;-88
2021/10/08 04:41:46;;;;;;;14.68;8.20;;;5.00;99.90;;;;;;5037612;28;20047;-89
2021/10/08 04:44:11;;;;;;;15.68;8.90;;;5.00;99.90;;;;;;5019678;28;20052;-90
2021/10/08 04:46:37;;;;;;;18.13;8.52;;;5.10;99.90;;;;;;5030461;28;20028;-86
2021/10/08 04:49:02;;;;;;;15.95;8.60;;;5.10;99.90;;;;;;5029464;28;20032;-87
2021/10/08 04:51:28;;;;;;;15.43;8.80;;;4.80;99.90;;;;;;5031938;28;20044;-87
2021/10/08 04:53:53;;;;;;;13.77;8.52;;;5.00;99.90;;;;;;5032997;28;20044;-88
2021/10/08 04:56:19;;;;;;;12.50;6.18;;;5.00;99.90;;;;;;5031996;28;20049;-87
2021/10/08 04:58:45;;;;;;;15.80;8.77;;;5.10;99.90;;;;;;5023325;28;20107;-87
2021/10/08 05:01:10;;;;;;;12.05;8.43;;;5.10;99.90;;;;;;5051983;28;20079;-91
2021/10/08 05:03:36;;;;;;;13.75;8.40;;;5.00;99.90;;;;;;5032121;28;20041;-87
2021/10/08 05:06:01;;;;;;;12.80;7.15;;;4.90;99.90;;;;;;5018779;28;20426;-88
2021/10/08 05:08:27;;;;;;;14.20;6.63;;;4.80;99.90;;;;;;5035714;28;20016;-87
2021/10/08 05:10:52;;;;;;;13.48;7.75;;;4.70;99.90;;;;;;5025301;28;20028;-88
2021/10/08 05:13:18;;;;;;;18.00;7.82;;;4.70;99.90;;;;;;5025354;28;20059;-88
2021/10/08 05:15:44;;;;;;;22.52;7.28;;;4.70;99.90;;;;;;5041970;28;20056;-87
2021/10/08 05:18:10;;;;;;;17.20;7.05;;;4.70;99.90;;;;;;5021920;28;20128;-88
2021/10/08 05:20:35;;;;;;;10.05;6.68;;;4.80;99.90;;;;;;5022612;28;20037;-87
2021/10/08 05:23:01;;;;;;;10.63;6.95;;;4.80;99.90;;;;;;5022671;28;20033;-89
2021/10/08 05:25:26;;;;;;;15.45;7.18;;;4.80;99.90;;;;;;5048920;28;20029;-89
2021/10/08 05:27:52;;;;;;;12.93;7.70;;;4.80;99.90;;;;;;5013104;28;20507;-89
2021/10/08 05:30:18;;;;;;;16.67;7.90;;;4.80;99.90;;;;;;5011937;28;20447;-88
2021/10/08 05:32:43;;;;;;;11.32;7.10;;;4.80;99.90;;;;;;5019729;28;20060;-88
2021/10/08 05:35:10;;;;;;;13.32;7.45;;;4.90;99.90;;;;;;5016793;28;20032;-89
2021/10/08 05:37:35;;;;;;;17.48;8.48;;;4.80;99.90;;;;;;5034448;28;20036;-88
2021/10/08 05:40:02;;;;;;;13.55;7.80;;;4.70;99.90;;;;;;5017570;28;20047;-87
2021/10/08 05:42:28;;;;;;;14.80;8.77;;;4.80;99.90;;;;;;5033358;28;20696;-86
2021/10/08 05:44:53;;;;;;;12.52;8.15;;;4.70;99.90;;;;;;5021695;28;20039;-86
2021/10/08 05:47:19;;;;;;;11.13;7.15;;;4.70;99.90;;;;;;5025080;28;20024;-88
2021/10/08 05:49:44;;;;;;;25.67;7.60;;;4.70;99.90;;;;;;5035792;28;20566;-87
2021/10/08 05:52:10;;;;;;;33.10;7.53;;;4.60;99.90;;;;;;5029762;28;20078;-87
2021/10/08 05:54:36;;;;;;;16.35;7.93;;;4.60;99.90;;;;;;5017255;28;20033;-88
2021/10/08 05:57:01;;;;;;;10.85;7.18;;;4.60;99.90;;;;;;5036157;28;20047;-86
2021/10/08 05:59:27;;;;;;;12.55;8.00;;;4.60;99.90;;;;;;5050367;28;20035;-88
2021/10/08 06:01:53;;;;;;;18.13;8.38;;;4.60;99.90;;;;;;5025390;28;20033;-86
2021/10/08 06:04:18;;;;;;;13.85;7.30;;;4.60;99.90;;;;;;5042974;28;20060;-87
2021/10/08 06:06:44;;;;;;;13.27;7.90;;;4.50;99.90;;;;;;5028389;28;20029;-87
2021/10/08 06:09:09;;;;;;;15.10;8.43;;;4.60;99.90;;;;;;5038356;28;20028;-87
2021/10/08 06:11:35;;;;;;;13.13;8.45;;;4.60;99.90;;;;;;5034309;28;20495;-87
2021/10/08 06:14:01;;;;;;;12.98;8.02;;;4.70;99.90;;;;;;5020781;28;20029;-87
2021/10/08 06:16:26;;;;;;;14.07;8.10;;;4.70;99.90;;;;;;5046808;28;20166;-87
2021/10/08 06:18:52;;;;;;;15.48;7.30;;;4.70;99.90;;;;;;5017159;28;20033;-87
2021/10/08 06:21:18;;;;;;;9.38;5.80;;;4.80;99.90;;;;;;5024422;28;20025;-86
2021/10/08 06:23:43;;;;;;;12.32;7.35;;;4.90;99.90;;;;;;5038363;28;20041;-87
2021/10/08 06:26:09;;;;;;;12.02;7.60;;;4.90;99.90;;;;;;5037604;28;20230;-87
2021/10/08 06:28:35;;;;;;;17.90;8.02;;;4.90;99.90;;;;;;5018848;28;20033;-87
2021/10/08 06:31:00;;;;;;;14.57;8.25;;;5.00;99.90;;;;;;5020166;28;20115;-87
2021/10/08 06:33:26;;;;;;;14.13;8.43;;;5.00;99.90;;;;;;5033328;28;20044;-86
2021/10/08 06:35:52;;;;;;;13.07;8.73;;;5.00;99.90;;;;;;5002866;28;20112;-88
2021/10/08 06:38:18;;;;;;;15.00;8.40;;;5.00;99.90;;;;;;5034709;28;20045;-87
2021/10/08 06:40:44;;;;;;;17.75;9.38;;;5.00;99.90;;;;;;5027878;28;20084;-88
2021/10/08 06:43:12;;;;;;;16.90;8.70;;;5.10;99.90;;;;;;5018499;28;20483;-89
2021/10/08 06:45:38;;;;;;;15.70;8.70;;;5.30;99.90;;;;;;5035213;28;20120;-88
2021/10/08 06:48:04;;;;;;;17.40;9.32;;;5.20;99.90;;;;;;5008984;28;20145;-88
2021/10/08 06:50:29;;;;;;;14.70;8.43;;;5.30;99.90;;;;;;5032440;28;20547;-88
2021/10/08 06:52:55;;;;;;;17.58;9.20;;;5.50;99.90;;;;;;5025135;28;20028;-88
2021/10/08 06:55:21;;;;;;;16.10;8.40;;;5.50;99.90;;;;;;5030053;28;20036;-88
2021/10/08 06:57:46;;;;;;;14.30;8.73;;;5.60;99.90;;;;;;5004061;28;20105;-87
2021/10/08 07:00:12;;;;;;;12.30;7.68;;;5.50;99.90;;;;;;5034752;28;20427;-88
2021/10/08 07:02:53;;;;;;;8.73;5.35;;;5.60;99.90;;;;;;5062762;28;20542;-88
2021/10/08 07:05:20;;;;;;;16.13;6.63;;;5.80;99.90;;;;;;5028814;28;20044;-88
2021/10/08 07:07:46;;;;;;;9.18;5.88;;;6.10;99.90;;;;;;5034976;28;20028;-89
2021/10/08 07:10:12;;;;;;;13.48;7.63;;;6.20;99.90;;;;;;5025247;28;20523;-89
2021/10/08 07:12:37;;;;;;;13.40;7.78;;;6.40;99.90;;;;;;5020785;28;20025;-89
2021/10/08 07:15:06;;;;;;;11.75;7.57;;;6.50;99.90;;;;;;5015879;28;20025;-88
2021/10/08 07:17:40;;;;;;;14.10;8.00;;;6.40;99.90;;;;;;5037988;28;20495;-89
2021/10/08 07:20:06;;;;;;;13.48;7.18;;;6.40;99.90;;;;;;5009175;28;20033;-89
2021/10/08 07:22:32;;;;;;;9.85;6.30;;;6.70;99.90;;;;;;5015457;28;20021;-89
2021/10/08 07:24:59;;;;;;;9.60;6.85;;;7.00;99.90;;;;;;5038749;28;20396;-86
2021/10/08 07:27:25;;;;;;;9.23;5.57;;;7.10;99.90;;;;;;5011023;28;20029;-86
2021/10/08 07:29:50;;;;;;;17.15;9.27;;;7.10;99.90;;;;;;5016758;28;20040;-88
2021/10/08 07:32:16;;;;;;;11.98;7.22;;;7.20;99.90;;;;;;5015220;28;20554;-88
2021/10/08 07:34:42;;;;;;;11.15;6.60;;;7.40;99.90;;;;;;5018114;28;20112;-88
2021/10/08 07:37:13;;;;;;;12.25;8.32;;;7.50;99.90;;;;;;4998592;28;20037;-88
2021/10/08 07:39:42;;;;;;;12.93;8.23;;;7.50;99.90;;;;;;5004130;28;20032;-88
2021/10/08 07:42:13;;;;;;;13.07;8.25;;;7.40;99.90;;;;;;5004499;28;20036;-88
2021/10/08 07:44:39;;;;;;;14.23;9.27;;;7.40;99.90;;;;;;5041750;28;20057;-89
2021/10/08 07:47:08;;;;;;;12.88;8.48;;;7.60;99.90;;;;;;5027900;28;20035;-89
2021/10/08 07:49:36;;;;;;;12.50;8.25;;;7.40;99.90;;;;;;5032172;28;20030;-89
2021/10/08 07:52:05;;;;;;;14.80;9.00;;;7.90;99.90;;;;;;5018851;28;20126;-88
2021/10/08 07:54:30;;;;;;;15.95;8.98;;;8.00;99.90;;;;;;5028338;28;20028;-87
2021/10/08 07:56:56;;;;;;;13.18;8.80;;;7.80;99.90;;;;;;5006090;28;20036;-89
2021/10/08 07:59:22;;;;;;;15.32;9.13;;;8.00;99.90;;;;;;5008521;28;20025;-89
2021/10/08 08:01:47;;;;;;;19.73;10.68;;;8.20;99.90;;;;;;5013351;28;20058;-89
2021/10/08 08:04:14;;;;;;;18.25;11.15;;;8.20;99.90;;;;;;5011935;28;20032;-88
2021/10/08 08:06:41;;;;;;;18.85;10.77;;;8.00;99.90;;;;;;5021691;28;20128;-88
2021/10/08 08:09:06;;;;;;;17.20;11.85;;;8.00;99.90;;;;;;5020348;28;20033;-88
2021/10/08 08:11:35;;;;;;;15.65;9.95;;;8.50;99.90;;;;;;5046979;28;20027;-87
2021/10/08 08:14:04;;;;;;;19.85;11.18;;;8.70;99.90;;;;;;4981827;28;20047;-86
2021/10/08 08:16:30;;;;;;;12.55;8.85;;;9.00;99.90;;;;;;5039282;28;20037;-87
2021/10/08 08:18:55;;;;;;;13.80;9.60;;;9.50;99.90;;;;;;5014885;28;20128;-87
2021/10/08 08:21:22;;;;;;;18.08;9.40;;;9.30;99.90;;;;;;5015834;28;20032;-87
2021/10/08 08:23:48;;;;;;;12.55;9.20;;;9.30;99.90;;;;;;5017456;28;20035;-87
2021/10/08 08:26:13;;;;;;;16.92;10.93;;;9.90;99.90;;;;;;5004219;28;20437;-87
2021/10/08 08:28:39;;;;;;;16.10;10.07;;;9.70;99.90;;;;;;5043104;28;20025;-86
2021/10/08 08:31:04;;;;;;;14.57;10.40;;;9.50;99.90;;;;;;5029624;28;20038;-87
2021/10/08 08:33:30;;;;;;;16.08;10.85;;;10.00;99.90;;;;;;5012021;28;20048;-86
2021/10/08 08:35:56;;;;;;;13.90;7.82;;;10.10;99.90;;;;;;5011903;28;20071;-87
2021/10/08 08:38:22;;;;;;;9.52;6.90;;;10.40;99.90;;;;;;5030512;28;20471;-87
2021/10/08 08:40:47;;;;;;;9.82;6.20;;;10.80;99.90;;;;;;5016713;28;20031;-87
2021/10/08 08:43:13;;;;;;;9.57;6.80;;;11.20;99.90;;;;;;5031836;28;20043;-87
2021/10/08 08:45:39;;;;;;;11.55;6.68;;;11.20;99.90;;;;;;5012687;28;20024;-87
2021/10/08 08:48:10;;;;;;;9.40;6.65;;;11.40;99.90;;;;;;5034371;28;20033;-87
2021/10/08 08:50:38;;;;;;;9.93;6.40;;;11.80;99.90;;;;;;5029077;28;20025;-87
2021/10/08 08:53:04;;;;;;;10.02;7.07;;;12.00;99.90;;;;;;5018503;28;20048;-87
2021/10/08 08:55:29;;;;;;;7.57;6.32;;;12.20;99.90;;;;;;5038750;28;20032;-87
2021/10/08 08:57:56;;;;;;;11.18;6.68;;;12.40;99.90;;;;;;5024312;28;20037;-87
2021/10/08 09:00:21;;;;;;;11.00;8.52;;;12.60;99.90;;;;;;5026843;28;20107;-87
2021/10/08 09:03:00;;;;;;;8.88;7.43;;;12.70;99.90;;;;;;5022066;28;20112;-87
2021/10/08 09:05:35;;;;;;;13.45;9.00;;;12.70;99.90;;;;;;5019185;28;20499;-87
2021/10/08 09:08:05;;;;;;;17.48;10.55;;;12.70;99.90;;;;;;5013911;28;20082;-87
2021/10/08 09:10:39;;;;;;;17.17;11.43;;;12.50;99.90;;;;;;5046997;28;20028;-87
2021/10/08 09:13:05;;;;;;;12.10;8.35;;;12.10;99.90;;;;;;5020805;28;20031;-88
2021/10/08 09:15:48;;;;;;;16.25;10.57;;;12.60;99.90;;;;;;5026116;28;20032;-87
2021/10/08 09:18:15;;;;;;;12.82;9.40;;;12.60;99.90;;;;;;5025535;28;20079;-87
2021/10/08 09:21:00;;;;;;;17.38;10.70;;;13.50;99.90;;;;;;5018985;28;20033;-87
2021/10/08 09:23:30;;;;;;;15.43;11.15;;;13.00;99.90;;;;;;5040687;28;20119;-87
2021/10/08 09:25:55;;;;;;;21.48;10.00;;;12.80;99.90;;;;;;5018296;28;20391;-87
2021/10/08 09:28:21;;;;;;;15.18;10.35;;;13.00;99.90;;;;;;4985498;28;20037;-86
2021/10/08 09:30:53;;;;;;;12.52;10.15;;;12.60;99.90;;;;;;5044498;28;20032;-86
2021/10/08 09:33:21;;;;;;;12.45;8.57;;;12.70;99.90;;;;;;5038733;28;20037;-87
2021/10/08 09:35:49;;;;;;;13.23;9.70;;;13.20;99.90;;;;;;5010985;28;20488;-87
2021/10/08 09:38:21;;;;;;;13.68;8.65;;;13.60;99.90;;;;;;5033217;28;20414;-87
2021/10/08 09:40:51;;;;;;;11.43;8.18;;;13.80;99.90;;;;;;5011838;28;20067;-86
2021/10/08 09:43:22;;;;;;;10.52;7.45;;;14.10;99.90;;;;;;5016454;28;20028;-86
2021/10/08 09:45:55;;;;;;;12.27;7.97;;;14.50;99.90;;;;;;5046329;28;20036;-87
2021/10/08 09:48:43;;;;;;;12.95;8.13;;;14.50;99.90;;;;;;5021621;28;20039;-87
2021/10/08 09:51:10;;;;;;;11.90;8.63;;;14.10;99.90;;;;;;5046660;28;20123;-87
2021/10/08 09:53:52;;;;;;;9.30;7.43;;;13.70;99.90;;;;;;5018567;28;20056;-86
2021/10/08 09:56:33;;;;;;;9.20;7.03;;;13.70;99.90;;;;;;5000937;28;20082;-86
2021/10/08 09:58:59;;;;;;;9.27;6.05;;;13.70;99.90;;;;;;5036460;28;20040;-86
2021/10/08 10:01:26;;;;;;;11.07;7.45;;;14.10;99.90;;;;;;5044938;28;20032;-86
2021/10/08 10:03:54;;;;;;;11.82;7.60;;;14.20;99.90;;;;;;5015264;28;20041;-86
2021/10/08 10:06:20;;;;;;;10.20;7.13;;;14.00;99.90;;;;;;5034810;28;20048;-86
2021/10/08 10:08:47;;;;;;;8.88;6.50;;;14.10;99.90;;;;;;5010655;28;20179;-86
2021/10/08 10:11:15;;;;;;;9.23;6.80;;;14.30;99.90;;;;;;5016073;28;20025;-86
2021/10/08 10:13:45;;;;;;;8.75;6.05;;;14.40;99.90;;;;;;5020564;28;20052;-86
2021/10/08 10:16:11;;;;;;;9.43;5.85;;;13.70;99.90;;;;;;5027353;28;20028;-86
2021/10/08 10:18:39;;;;;;;7.32;6.13;;;14.10;99.90;;;;;;5023010;28;20582;-86
2021/10/08 10:21:04;;;;;;;9.90;5.40;;;15.70;99.90;;;;;;5025245;28;20037;-85
2021/10/08 10:23:30;;;;;;;9.05;5.68;;;15.00;99.90;;;;;;5017512;28;20024;-85
2021/10/08 10:25:56;;;;;;;7.25;5.47;;;15.20;99.90;;;;;;5020403;28;20078;-85
2021/10/08 10:28:21;;;;;;;8.07;5.85;;;15.50;99.90;;;;;;5014221;28;20431;-86
2021/10/08 10:30:48;;;;;;;12.25;5.90;;;14.50;99.90;;;;;;5020476;28;20053;-86
2021/10/08 10:33:13;;;;;;;7.20;5.63;;;14.50;99.90;;;;;;5018025;28;20032;-85
2021/10/08 10:35:52;;;;;;;7.93;5.22;;;15.20;99.90;;;;;;5031474;28;20037;-86
2021/10/08 10:38:36;;;;;;;12.57;6.85;;;15.10;99.90;;;;;;5019594;28;20579;-85
2021/10/08 10:41:08;;;;;;;8.18;5.63;;;14.10;99.90;;;;;;5043289;28;20039;-86
2021/10/08 10:43:36;;;;;;;7.57;5.70;;;14.30;99.90;;;;;;5059157;28;20123;-86
2021/10/08 10:52:17;;;;;;;8.55;5.65;;;15.60;99.90;;;;;;5044449;28;20115;-85
2021/10/08 10:54:49;;;;;;;8.88;5.25;;;16.30;99.90;;;;;;5033840;28;20032;-85
2021/10/08 10:57:22;;;;;;;14.63;6.38;;;17.00;99.90;;;;;;5047850;28;20108;-85
2021/10/08 10:59:48;;;;;;;10.63;6.18;;;15.80;99.90;;;;;;5049024;28;20033;-85
2021/10/08 11:02:17;;;;;;;6.65;4.88;;;16.10;99.90;;;;;;5029303;28;20025;-86
2021/10/08 11:04:48;;;;;;;10.68;5.70;;;16.60;99.90;;;;;;5034646;28;20674;-86
2021/10/08 11:07:17;;;;;;;7.53;5.22;;;16.80;99.90;;;;;;5025218;28;20028;-86
2021/10/08 11:09:44;;;;;;;9.50;5.70;;;17.40;99.90;;;;;;5006641;28;20029;-86
2021/10/08 11:12:41;;;;;;;9.45;5.05;;;17.00;99.40;;;;;;5017653;28;20099;-86
2021/10/08 11:15:16;;;;;;;7.00;4.45;;;17.80;99.90;;;;;;5061934;28;20101;-86
2021/10/08 11:18:02;;;;;;;4.65;4.07;;;19.00;97.40;;;;;;5046717;28;20033;-86
2021/10/08 11:20:49;;;;;;;9.40;4.65;;;19.10;97.70;;;;;;5019459;28;20044;-86
2021/10/08 11:23:25;;;;;;;8.02;4.82;;;19.10;97.40;;;;;;5048139;28;20037;-86
2021/10/08 11:25:53;;;;;;;5.47;4.65;;;17.80;98.80;;;;;;5029007;28;20523;-86
2021/10/08 11:29:06;;;;;;;10.30;6.22;;;17.90;99.90;;;;;;5021527;28;20456;-86
2021/10/08 11:35:18;;;;;;;8.30;4.35;;;18.40;98.70;;;;;;4948662;28;20125;-85
2021/10/08 11:37:47;;;;;;;7.20;5.78;;;18.40;98.00;;;;;;4941002;28;20659;-85
2021/10/08 11:40:31;;;;;;;10.52;5.53;;;18.30;98.80;;;;;;4973887;28;20021;-86
2021/10/08 11:43:03;;;;;;;7.57;5.80;;;18.70;98.60;;;;;;5030336;28;20028;-86
2021/10/08 11:45:41;;;;;;;8.27;5.43;;;18.00;98.60;;;;;;5015713;28;20028;-86
2021/10/08 11:48:20;;;;;;;6.50;5.05;;;18.40;98.80;;;;;;5032031;28;20108;-86
2021/10/08 11:51:03;;;;;;;10.57;5.95;;;19.40;97.90;;;;;;5004876;28;20025;-85
2021/10/08 11:53:48;;;;;;;7.90;5.70;;;17.90;99.00;;;;;;5039547;28;20062;-86
2021/10/08 11:56:25;;;;;;;8.10;4.40;;;17.90;99.20;;;;;;5012759;28;20036;-84
2021/10/08 11:58:51;;;;;;;6.85;4.97;;;18.70;99.90;;;;;;5022474;28;20523;-86
2021/10/08 12:01:21;;;;;;;6.72;5.57;;;18.50;98.00;;;;;;5018414;28;20447;-86
2021/10/08 12:04:25;;;;;;;9.30;6.90;;;18.90;98.00;;;;;;5006765;28;20040;-86
2021/10/08 12:07:08;;;;;;;9.80;4.93;;;18.30;96.60;;;;;;5006610;28;20079;-86
2021/10/08 12:09:47;;;;;;;11.52;6.05;;;18.00;99.00;;;;;;4980920;28;20033;-86
2021/10/08 12:12:28;;;;;;;7.85;5.72;;;17.70;99.90;;;;;;4985083;28;20550;-86
2021/10/08 12:14:55;;;;;;;6.45;5.40;;;18.00;99.50;;;;;;5019544;28;20479;-86
2021/10/08 12:17:20;;;;;;;8.45;5.10;;;19.20;96.70;;;;;;5020111;28;20029;-86
2021/10/08 12:19:46;;;;;;;8.38;4.60;;;19.00;96.80;;;;;;5016045;28;20024;-86
2021/10/08 12:22:22;;;;;;;7.47;4.90;;;19.00;97.00;;;;;;5015211;28;20473;-86
2021/10/08 12:24:51;;;;;;;7.75;4.70;;;19.50;98.00;;;;;;5014557;28;20049;-86
2021/10/08 12:27:17;;;;;;;10.77;4.75;;;18.60;96.30;;;;;;5027610;28;20020;-86
2021/10/08 12:29:44;;;;;;;8.13;5.15;;;19.70;96.20;;;;;;5030072;28;20456;-86
2021/10/08 12:32:15;;;;;;;8.07;5.00;;;18.40;98.40;;;;;;5015423;28;20032;-86
2021/10/08 12:34:49;;;;;;;6.18;4.72;;;19.70;96.10;;;;;;5028479;28;20029;-86
2021/10/08 12:37:31;;;;;;;9.32;5.25;;;19.50;96.00;;;;;;5012495;28;20017;-85
2021/10/08 12:40:01;;;;;;;6.97;3.92;;;18.90;97.80;;;;;;5005007;28;20043;-85
2021/10/08 12:42:29;;;;;;;6.78;4.72;;;19.70;96.60;;;;;;5038102;28;20021;-85
2021/10/08 12:44:58;;;;;;;5.85;4.18;;;20.40;96.20;;;;;;5028202;28;20499;-85
2021/10/08 12:47:28;;;;;;;5.28;4.22;;;20.80;95.40;;;;;;5025399;28;20029;-85
2021/10/08 12:50:02;;;;;;;5.90;4.80;;;20.90;95.40;;;;;;5022299;28;20056;-85
2021/10/08 12:52:47;;;;;;;7.10;4.55;;;19.80;96.40;;;;;;5032393;28;20032;-85
2021/10/08 12:55:14;;;;;;;6.35;4.60;;;19.60;96.40;;;;;;5022417;28;20373;-85
2021/10/08 12:58:05;;;;;;;6.05;4.40;;;18.90;96.80;;;;;;5025766;28;20122;-85
2021/10/08 13:00:36;;;;;;;9.45;5.18;;;19.80;96.90;;;;;;5068417;28;20464;-85
2021/10/08 13:03:01;;;;;;;5.93;4.13;;;18.50;96.50;;;;;;5032904;28;20171;-85